createdAt,value
2019-03-04T00:01:12.151Z,98789.60
2019-03-04T00:02:15.074Z,98783.90
2019-03-04T00:03:17.268Z,98772.20
2019-03-04T00:04:19.684Z,98780.90
2019-03-04T00:05:21.908Z,98789.60
2019-03-04T00:06:24.128Z,98776.09
2019-03-04T00:07:26.324Z,98769.59
2019-03-04T00:08:28.524Z,98757.37
2019-03-04T00:09:30.750Z,98781.70
2019-03-04T00:10:32.952Z,98787.27
2019-03-04T00:11:35.158Z,98783.36
2019-03-04T00:12:37.404Z,98788.56
2019-03-04T00:13:39.590Z,98784.30
2019-03-04T00:14:41.812Z,98786.76
2019-03-04T00:15:44.001Z,98787.66
2019-03-04T00:16:46.202Z,98768.96
2019-03-04T00:17:48.395Z,98771.56
2019-03-04T00:18:50.678Z,98773.66
2019-03-04T00:19:52.904Z,98769.77
2019-03-04T00:20:55.094Z,98773.27
2019-03-04T00:21:57.217Z,98764.56
2019-03-04T00:22:59.350Z,98761.46
2019-03-04T00:24:01.542Z,98760.16
2019-03-04T00:25:03.753Z,98754.96
2019-03-04T00:26:05.942Z,98758.46
2019-03-04T00:27:08.156Z,98762.76
2019-03-04T00:28:10.360Z,98781.36
2019-03-04T00:29:12.718Z,98760.56
2019-03-04T00:30:14.951Z,98755.76
2019-03-04T00:31:17.161Z,98749.27
2019-03-04T00:32:19.366Z,98760.96
2019-03-04T00:33:21.579Z,98762.66
2019-03-04T00:34:23.790Z,98751.46
2019-03-04T00:35:26.078Z,98755.76
2019-03-04T00:36:28.290Z,98751.46
2019-03-04T00:37:30.504Z,98743.16
2019-03-04T00:38:32.692Z,98745.36
2019-03-04T00:39:34.886Z,98743.56
2019-03-04T00:40:37.099Z,98744.06
2019-03-04T00:41:39.286Z,98767.45
2019-03-04T00:42:41.484Z,98749.77
2019-03-04T00:43:43.679Z,98741.96
2019-03-04T00:44:45.886Z,98737.16
2019-03-04T00:45:48.114Z,98747.16
2019-03-04T00:46:50.308Z,98749.77
2019-03-04T00:47:52.518Z,98752.76
2019-03-04T00:48:56.417Z,98736.77
2019-03-04T00:49:59.915Z,98735.47
2019-03-04T00:51:02.154Z,98740.66
2019-03-04T00:52:04.358Z,98732.06
2019-03-04T00:53:06.552Z,98735.06
2019-03-04T00:54:08.778Z,98750.27
2019-03-04T00:55:11.004Z,98732.97
2019-03-04T00:56:13.209Z,98738.56
2019-03-04T00:57:15.421Z,98739.06
2019-03-04T00:58:17.629Z,98730.37
2019-03-04T00:59:19.859Z,98725.67
2019-03-04T01:00:22.098Z,98735.16
2019-03-04T01:01:24.410Z,98719.57
2019-03-04T01:02:26.612Z,98725.27
2019-03-04T01:03:28.830Z,98718.27
2019-03-04T01:04:31.022Z,98726.17
2019-03-04T01:05:33.245Z,98704.87
2019-03-04T01:06:35.456Z,98718.77
2019-03-04T01:07:40.715Z,98721.51
2019-03-04T01:08:42.918Z,98711.88
2019-03-04T01:09:45.130Z,98715.41
2019-03-04T01:10:47.336Z,98716.30
2019-03-04T01:11:49.535Z,98709.41
2019-03-04T01:12:54.722Z,98715.91
2019-03-04T01:13:56.922Z,98715.01
2019-03-04T01:14:59.130Z,98711.61
2019-03-04T01:16:01.360Z,98720.81
2019-03-04T01:17:03.576Z,98704.71
2019-03-04T01:18:05.760Z,98699.52
2019-03-04T01:19:07.949Z,98701.21
2019-03-04T01:20:10.138Z,98703.01
2019-03-04T01:21:12.351Z,98706.01
2019-03-04T01:22:14.555Z,98706.01
2019-03-04T01:23:16.764Z,98693.91
2019-03-04T01:24:18.963Z,98694.31
2019-03-04T01:25:21.173Z,98688.21
2019-03-04T01:26:23.373Z,98686.11
2019-03-04T01:27:25.579Z,98695.61
2019-03-04T01:28:27.870Z,98683.52
2019-03-04T01:29:30.096Z,98685.31
2019-03-04T01:30:32.329Z,98687.02
2019-03-04T01:31:34.562Z,98679.61
2019-03-04T01:32:36.764Z,98666.61
2019-03-04T01:33:38.962Z,98667.81
2019-03-04T01:34:41.174Z,98665.72
2019-03-04T01:35:43.379Z,98667.91
2019-03-04T01:36:45.596Z,98670.02
2019-03-04T01:37:47.798Z,98669.61
2019-03-04T01:38:50.027Z,98665.31
2019-03-04T01:39:52.191Z,98659.72
2019-03-04T01:40:54.403Z,98654.92
2019-03-04T01:41:56.604Z,98659.22
2019-03-04T01:43:00.315Z,98653.11
2019-03-04T01:44:02.521Z,98653.61
2019-03-04T01:45:04.731Z,98654.02
2019-03-04T01:46:06.922Z,98653.61
2019-03-04T01:47:10.851Z,98651.42
2019-03-04T01:48:13.150Z,98648.42
2019-03-04T01:49:15.347Z,98641.92
2019-03-04T01:50:17.555Z,98640.12
2019-03-04T01:51:19.784Z,98635.32
2019-03-04T01:52:21.983Z,98625.42
2019-03-04T01:53:24.171Z,98631.42
2019-03-04T01:54:28.112Z,98632.32
2019-03-04T01:55:30.378Z,98645.72
2019-03-04T01:56:32.607Z,98639.22
2019-03-04T01:57:34.799Z,98630.52
2019-03-04T01:58:36.999Z,98639.22
2019-03-04T01:59:39.196Z,98634.02
2019-03-04T02:00:44.437Z,98627.52
2019-03-04T02:01:46.653Z,98624.02
2019-03-04T02:02:48.855Z,98613.63
2019-03-04T02:03:51.064Z,98608.02
2019-03-04T02:04:53.246Z,98603.22
2019-03-04T02:05:55.455Z,98601.92
2019-03-04T02:06:57.654Z,98601.52
2019-03-04T02:07:59.855Z,98599.72
2019-03-04T02:09:02.063Z,98598.02
2019-03-04T02:10:04.275Z,98595.83
2019-03-04T02:11:06.487Z,98589.70
2019-03-04T02:12:08.712Z,98589.33
2019-03-04T02:13:10.903Z,98596.73
2019-03-04T02:14:13.098Z,98605.42
2019-03-04T02:15:15.299Z,98590.63
2019-03-04T02:16:17.503Z,98595.83
2019-03-04T02:17:19.719Z,98598.52
2019-03-04T02:18:21.918Z,98593.59
2019-03-04T02:19:24.121Z,98599.72
2019-03-04T02:20:26.332Z,98590.23
2019-03-04T02:21:28.534Z,98588.03
2019-03-04T02:22:30.739Z,98580.23
2019-03-04T02:23:32.943Z,98575.03
2019-03-04T02:24:35.161Z,98573.20
2019-03-04T02:25:37.460Z,98576.70
2019-03-04T02:26:39.653Z,98570.20
2019-03-04T02:27:41.877Z,98567.59
2019-03-04T02:28:44.081Z,98574.50
2019-03-04T02:29:46.287Z,98574.50
2019-03-04T02:30:48.515Z,98572.80
2019-03-04T02:31:50.721Z,98573.73
2019-03-04T02:32:52.963Z,98576.33
2019-03-04T02:33:55.158Z,98573.73
2019-03-04T02:34:59.461Z,98575.80
2019-03-04T02:36:01.660Z,98575.80
2019-03-04T02:37:03.866Z,98575.39
2019-03-04T02:38:06.115Z,98573.33
2019-03-04T02:39:08.312Z,98569.83
2019-03-04T02:40:10.522Z,98557.20
2019-03-04T02:41:12.726Z,98560.60
2019-03-04T02:42:14.931Z,98560.60
2019-03-04T02:43:17.253Z,98558.00
2019-03-04T02:44:19.457Z,98547.61
2019-03-04T02:45:21.750Z,98540.20
2019-03-04T02:46:23.942Z,98533.30
2019-03-04T02:47:26.143Z,98534.61
2019-03-04T02:48:28.366Z,98529.41
2019-03-04T02:49:30.580Z,98526.41
2019-03-04T02:50:32.773Z,98529.00
2019-03-04T02:51:34.976Z,98513.41
2019-03-04T02:52:37.442Z,98516.81
2019-03-04T02:53:39.684Z,98511.21
2019-03-04T02:54:41.974Z,98499.52
2019-03-04T02:55:44.174Z,98516.81
2019-03-04T02:56:46.366Z,98508.61
2019-03-04T02:57:48.559Z,98512.51
2019-03-04T02:58:50.752Z,98505.11
2019-03-04T02:59:52.966Z,98500.81
2019-03-04T03:00:55.249Z,98495.61
2019-03-04T03:01:57.428Z,98506.91
2019-03-04T03:02:59.637Z,98503.91
2019-03-04T03:04:01.871Z,98503.91
2019-03-04T03:05:04.072Z,98490.41
2019-03-04T03:06:06.294Z,98495.61
2019-03-04T03:07:08.486Z,98497.31
2019-03-04T03:08:10.693Z,98488.22
2019-03-04T03:09:12.949Z,98489.11
2019-03-04T03:10:15.222Z,98483.02
2019-03-04T03:11:19.164Z,98484.31
2019-03-04T03:12:21.313Z,98481.72
2019-03-04T03:13:23.513Z,98481.31
2019-03-04T03:14:25.969Z,98482.62
2019-03-04T03:15:28.149Z,98483.02
2019-03-04T03:16:30.357Z,98484.31
2019-03-04T03:17:32.541Z,98477.82
2019-03-04T03:18:34.746Z,98476.13
2019-03-04T03:19:36.986Z,98473.92
2019-03-04T03:20:39.173Z,98473.52
2019-03-04T03:21:41.382Z,98473.02
2019-03-04T03:22:43.598Z,98460.42
2019-03-04T03:23:45.810Z,98469.13
2019-03-04T03:24:48.041Z,98472.62
2019-03-04T03:25:50.261Z,98472.62
2019-03-04T03:26:52.452Z,98467.83
2019-03-04T03:27:54.671Z,98466.12
2019-03-04T03:28:56.855Z,98465.72
2019-03-04T03:29:59.090Z,98450.53
2019-03-04T03:31:01.417Z,98465.62
2019-03-04T03:32:03.784Z,98460.02
2019-03-04T03:33:05.995Z,98450.03
2019-03-04T03:34:08.193Z,98450.92
2019-03-04T03:35:10.445Z,98448.33
2019-03-04T03:36:15.370Z,98449.62
2019-03-04T03:37:17.567Z,98443.53
2019-03-04T03:38:19.782Z,98450.53
2019-03-04T03:39:21.980Z,98437.94
2019-03-04T03:40:24.219Z,98437.94
2019-03-04T03:41:26.423Z,98436.63
2019-03-04T03:42:28.635Z,98435.33
2019-03-04T03:43:30.841Z,98429.64
2019-03-04T03:44:33.045Z,98428.43
2019-03-04T03:45:35.277Z,98427.04
2019-03-04T03:46:37.484Z,98427.13
2019-03-04T03:47:39.696Z,98423.23
2019-03-04T03:48:41.900Z,98426.23
2019-03-04T03:49:44.109Z,98411.04
2019-03-04T03:50:46.315Z,98407.14
2019-03-04T03:51:48.501Z,98401.54
2019-03-04T03:52:50.707Z,98400.64
2019-03-04T03:53:52.904Z,98398.45
2019-03-04T03:54:55.111Z,98396.34
2019-03-04T03:55:57.340Z,98401.54
2019-03-04T03:56:59.569Z,98391.55
2019-03-04T03:58:01.779Z,98388.05
2019-03-04T03:59:06.086Z,98389.75
2019-03-04T04:00:11.032Z,98395.84
2019-03-04T04:01:13.280Z,98399.34
2019-03-04T04:02:15.475Z,98393.25
2019-03-04T04:03:17.674Z,98389.34
2019-03-04T04:04:19.947Z,98387.24
2019-03-04T04:05:22.149Z,98384.55
2019-03-04T04:06:24.394Z,98378.95
2019-03-04T04:07:26.584Z,98375.05
2019-03-04T04:08:28.787Z,98372.45
2019-03-04T04:09:30.990Z,98370.75
2019-03-04T04:10:33.198Z,98367.25
2019-03-04T04:11:35.628Z,98383.75
2019-03-04T04:12:37.838Z,98388.95
2019-03-04T04:13:40.034Z,98384.64
2019-03-04T04:14:42.238Z,98379.84
2019-03-04T04:15:44.734Z,98381.55
2019-03-04T04:16:46.976Z,98379.45
2019-03-04T04:17:49.181Z,98369.45
2019-03-04T04:18:51.378Z,98371.16
2019-03-04T04:19:53.582Z,98379.84
2019-03-04T04:20:55.783Z,98375.95
2019-03-04T04:21:58.000Z,98379.45
2019-03-04T04:23:00.214Z,98369.86
2019-03-04T04:24:02.402Z,98372.05
2019-03-04T04:25:04.602Z,98371.55
2019-03-04T04:26:21.058Z,98369.45
2019-03-04T04:27:23.206Z,98361.66
2019-03-04T04:28:25.399Z,98357.75
2019-03-04T04:29:27.730Z,98359.05
2019-03-04T04:30:33.095Z,98344.66
2019-03-04T04:31:35.307Z,98344.36
2019-03-04T04:32:37.525Z,98342.97
2019-03-04T04:33:39.719Z,98339.96
2019-03-04T04:34:41.921Z,98333.87
2019-03-04T04:35:44.242Z,98336.47
2019-03-04T04:36:48.267Z,98326.47
2019-03-04T04:37:50.496Z,98321.77
2019-03-04T04:38:52.710Z,98319.17
2019-03-04T04:39:55.911Z,98304.88
2019-03-04T04:40:58.115Z,98297.88
2019-03-04T04:42:00.315Z,98288.29
2019-03-04T04:43:02.545Z,98297.08
2019-03-04T04:44:06.261Z,98290.98
2019-03-04T04:45:08.447Z,98288.78
2019-03-04T04:46:10.630Z,98284.88
2019-03-04T04:47:12.835Z,98283.09
2019-03-04T04:48:15.067Z,98285.69
2019-03-04T04:49:17.277Z,98277.48
2019-03-04T04:50:19.699Z,98278.39
2019-03-04T04:51:21.905Z,98278.79
2019-03-04T04:52:24.201Z,98272.30
2019-03-04T04:53:26.440Z,98270.59
2019-03-04T04:54:28.635Z,98264.89
2019-03-04T04:55:30.839Z,98269.69
2019-03-04T04:56:33.049Z,98265.80
2019-03-04T04:57:35.247Z,98269.29
2019-03-04T04:58:37.489Z,98263.20
2019-03-04T04:59:39.709Z,98263.20
2019-03-04T05:00:41.933Z,98264.09
2019-03-04T05:01:44.136Z,98266.69
2019-03-04T05:02:46.344Z,98258.00
2019-03-04T05:03:50.283Z,98252.39
2019-03-04T05:04:52.475Z,98245.90
2019-03-04T05:05:54.675Z,98243.30
2019-03-04T05:06:56.873Z,98232.00
2019-03-04T05:07:59.074Z,98223.31
2019-03-04T05:09:01.375Z,98222.02
2019-03-04T05:10:03.544Z,98211.62
2019-03-04T05:11:05.755Z,98215.52
2019-03-04T05:12:08.119Z,98211.62
2019-03-04T05:13:10.313Z,98200.33
2019-03-04T05:14:12.541Z,98193.42
2019-03-04T05:15:14.744Z,98191.72
2019-03-04T05:16:16.947Z,98187.33
2019-03-04T05:17:19.198Z,98191.31
2019-03-04T05:18:21.338Z,98196.52
2019-03-04T05:19:23.564Z,98186.03
2019-03-04T05:20:28.571Z,98185.22
2019-03-04T05:21:30.779Z,98182.13
2019-03-04T05:22:32.979Z,98185.63
2019-03-04T05:23:35.188Z,98173.93
2019-03-04T05:24:39.502Z,98169.63
2019-03-04T05:25:41.733Z,98161.74
2019-03-04T05:26:43.939Z,98161.74
2019-03-04T05:27:46.131Z,98152.73
2019-03-04T05:28:48.345Z,98155.24
2019-03-04T05:29:50.757Z,98150.14
2019-03-04T05:30:52.949Z,98141.44
2019-03-04T05:31:55.147Z,98140.55
2019-03-04T05:32:57.354Z,98141.84
2019-03-04T05:33:59.557Z,98142.34
2019-03-04T05:35:01.805Z,98141.84
2019-03-04T05:36:04.005Z,98138.44
2019-03-04T05:37:06.216Z,98133.16
2019-03-04T05:38:08.422Z,98124.55
2019-03-04T05:39:10.621Z,98129.34
2019-03-04T05:40:12.862Z,98114.56
2019-03-04T05:41:15.063Z,98113.75
2019-03-04T05:42:17.255Z,98104.16
2019-03-04T05:43:19.468Z,98101.56
2019-03-04T05:44:21.666Z,98095.06
2019-03-04T05:45:23.911Z,98089.87
2019-03-04T05:46:26.132Z,98085.16
2019-03-04T05:47:28.328Z,98079.47
2019-03-04T05:48:30.538Z,98074.67
2019-03-04T05:49:32.741Z,98067.77
2019-03-04T05:50:34.990Z,98072.56
2019-03-04T05:51:37.300Z,98072.97
2019-03-04T05:52:39.496Z,98067.38
2019-03-04T05:53:41.692Z,98063.47
2019-03-04T05:54:44.023Z,98061.77
2019-03-04T05:55:46.316Z,98066.07
2019-03-04T05:56:48.519Z,98049.58
2019-03-04T05:57:50.724Z,98055.67
2019-03-04T05:58:52.926Z,98042.27
2019-03-04T05:59:55.141Z,98042.27
2019-03-04T06:00:57.491Z,98043.09
2019-03-04T06:02:02.196Z,98039.67
2019-03-04T06:03:04.407Z,98034.48
2019-03-04T06:04:06.703Z,98034.88
2019-03-04T06:05:09.005Z,98023.67
2019-03-04T06:06:11.256Z,98022.78
2019-03-04T06:07:38.534Z,98020.19
2019-03-04T06:08:41.113Z,98025.88
2019-03-04T06:09:43.324Z,98021.48
2019-03-04T06:10:45.522Z,98014.17
2019-03-04T06:11:47.743Z,98010.28
2019-03-04T06:12:52.348Z,98011.17
2019-03-04T06:13:54.540Z,98002.89
2019-03-04T06:14:56.747Z,97999.39
2019-03-04T06:15:58.966Z,97999.39
2019-03-04T06:17:01.204Z,97998.98
2019-03-04T06:18:03.412Z,97997.20
2019-03-04T06:19:05.616Z,97991.59
2019-03-04T06:20:07.856Z,97979.91
2019-03-04T06:21:10.054Z,97983.80
2019-03-04T06:22:12.302Z,97979.41
2019-03-04T06:23:14.508Z,97968.61
2019-03-04T06:24:18.081Z,97969.50
2019-03-04T06:25:20.227Z,97965.12
2019-03-04T06:26:22.426Z,97962.11
2019-03-04T06:27:24.657Z,97962.44
2019-03-04T06:28:26.879Z,97964.71
2019-03-04T06:29:29.070Z,97944.73
2019-03-04T06:30:31.263Z,97953.83
2019-03-04T06:31:33.492Z,97956.91
2019-03-04T06:32:35.706Z,97961.22
2019-03-04T06:33:37.928Z,97952.61
2019-03-04T06:34:40.130Z,97950.02
2019-03-04T06:35:42.330Z,97944.41
2019-03-04T06:36:44.736Z,97939.62
2019-03-04T06:37:46.974Z,97935.72
2019-03-04T06:38:49.191Z,97932.31
2019-03-04T06:39:51.403Z,97924.43
2019-03-04T06:40:53.618Z,97928.81
2019-03-04T06:41:55.836Z,97927.92
2019-03-04T06:42:59.818Z,97926.70
2019-03-04T06:44:02.156Z,97913.71
2019-03-04T06:45:04.346Z,97921.10
2019-03-04T06:46:08.874Z,97916.31
2019-03-04T06:47:11.455Z,97912.90
2019-03-04T06:48:14.201Z,97915.50
2019-03-04T06:49:16.403Z,97903.72
2019-03-04T06:50:18.594Z,97902.50
2019-03-04T06:51:20.804Z,97904.70
2019-03-04T06:52:23.011Z,97908.11
2019-03-04T06:53:25.275Z,97906.89
2019-03-04T06:54:27.454Z,97899.91
2019-03-04T06:55:29.834Z,97889.51
2019-03-04T06:56:32.041Z,97885.61
2019-03-04T06:57:34.246Z,97892.52
2019-03-04T06:58:36.482Z,97888.61
2019-03-04T06:59:38.688Z,97884.23
2019-03-04T07:00:40.884Z,97882.93
2019-03-04T07:01:45.995Z,97880.73
2019-03-04T07:02:48.202Z,97881.63
2019-03-04T07:03:50.430Z,97878.62
2019-03-04T07:04:52.635Z,97875.13
2019-03-04T07:05:54.936Z,97869.13
2019-03-04T07:06:57.149Z,97867.82
2019-03-04T07:07:59.368Z,97868.71
2019-03-04T07:09:01.603Z,97860.02
2019-03-04T07:10:03.814Z,97865.71
2019-03-04T07:11:06.032Z,97856.61
2019-03-04T07:12:08.248Z,97853.13
2019-03-04T07:13:11.463Z,97860.11
2019-03-04T07:14:13.672Z,97845.73
2019-03-04T07:15:15.870Z,97847.44
2019-03-04T07:16:18.091Z,97836.15
2019-03-04T07:17:20.292Z,97831.03
2019-03-04T07:18:22.496Z,97846.63
2019-03-04T07:19:24.710Z,97840.61
2019-03-04T07:20:26.935Z,97833.22
2019-03-04T07:21:29.143Z,97852.23
2019-03-04T07:22:31.350Z,97839.72
2019-03-04T07:23:33.558Z,97837.04
2019-03-04T07:24:35.784Z,97836.63
2019-03-04T07:25:37.987Z,97826.64
2019-03-04T07:26:40.204Z,97823.64
2019-03-04T07:27:44.333Z,97823.23
2019-03-04T07:28:46.301Z,97817.14
2019-03-04T07:29:48.506Z,97810.31
2019-03-04T07:30:50.707Z,97805.12
2019-03-04T07:31:54.501Z,97805.52
2019-03-04T07:32:56.704Z,97809.02
2019-03-04T07:33:58.940Z,97807.31
2019-03-04T07:35:01.137Z,97810.84
2019-03-04T07:36:03.341Z,97806.13
2019-03-04T07:37:05.556Z,97826.43
2019-03-04T07:38:07.748Z,97842.40
2019-03-04T07:39:09.958Z,97861.89
2019-03-04T07:40:12.282Z,97869.31
2019-03-04T07:41:14.515Z,97866.72
2019-03-04T07:42:16.719Z,97849.83
2019-03-04T07:43:18.926Z,97848.52
2019-03-04T07:44:21.143Z,97861.52
2019-03-04T07:45:23.366Z,97837.13
2019-03-04T07:46:26.778Z,97850.52
2019-03-04T07:47:28.950Z,97858.73
2019-03-04T07:48:31.168Z,97858.80
2019-03-04T07:49:33.425Z,97847.03
2019-03-04T07:50:35.658Z,97851.82
2019-03-04T07:51:37.868Z,97850.93
2019-03-04T07:52:40.073Z,97832.25
2019-03-04T07:53:46.350Z,97828.35
2019-03-04T07:54:46.133Z,97817.06
2019-03-04T07:55:48.374Z,97828.76
2019-03-04T07:56:50.563Z,97836.55
2019-03-04T07:57:52.766Z,97826.97
2019-03-04T07:58:54.980Z,97830.06
2019-03-04T07:59:58.569Z,97837.37
2019-03-04T08:01:00.728Z,97849.55
2019-03-04T08:02:02.936Z,97845.16
2019-03-04T08:03:05.131Z,97835.66
2019-03-04T08:04:07.341Z,97826.08
2019-03-04T08:05:09.536Z,97820.88
2019-03-04T08:06:11.769Z,97809.59
2019-03-04T08:07:13.979Z,97806.10
2019-03-04T08:08:16.362Z,97806.10
2019-03-04T08:09:18.484Z,97806.59
2019-03-04T08:10:20.703Z,97803.98
2019-03-04T08:11:22.951Z,97799.61
2019-03-04T08:12:25.142Z,97807.89
2019-03-04T08:13:27.351Z,97798.80
2019-03-04T08:14:29.564Z,97797.49
2019-03-04T08:15:31.780Z,97800.09
2019-03-04T08:16:36.139Z,97789.70
2019-03-04T08:17:37.853Z,97790.59
2019-03-04T08:18:40.055Z,97784.50
2019-03-04T08:19:44.108Z,97784.58
2019-03-04T08:20:46.316Z,97774.59
2019-03-04T08:21:48.561Z,97759.41
2019-03-04T08:22:50.784Z,97762.89
2019-03-04T08:23:52.989Z,97760.70
2019-03-04T08:24:55.203Z,97756.39
2019-03-04T08:25:57.527Z,97751.61
2019-03-04T08:26:59.765Z,97745.11
2019-03-04T08:28:01.973Z,97744.70
2019-03-04T08:29:04.189Z,97750.80
2019-03-04T08:30:06.403Z,97743.41
2019-03-04T08:31:08.623Z,97746.08
2019-03-04T08:32:10.848Z,97740.40
2019-03-04T08:33:13.066Z,97739.91
2019-03-04T08:34:15.286Z,97741.62
2019-03-04T08:35:17.487Z,97737.23
2019-03-04T08:36:19.675Z,97745.03
2019-03-04T08:37:21.901Z,97755.84
2019-03-04T08:38:24.128Z,97772.31
2019-03-04T08:39:26.335Z,97788.73
2019-03-04T08:40:28.532Z,97790.10
2019-03-04T08:41:30.739Z,97772.31
2019-03-04T08:42:34.778Z,97778.81
2019-03-04T08:43:37.080Z,97775.33
2019-03-04T08:44:39.766Z,97772.23
2019-03-04T08:45:41.961Z,97772.72
2019-03-04T08:46:44.187Z,97771.83
2019-03-04T08:47:46.403Z,97770.53
2019-03-04T08:48:48.627Z,97760.55
2019-03-04T08:49:50.851Z,97764.03
2019-03-04T08:50:53.059Z,97753.16
2019-03-04T08:51:55.273Z,97753.56
2019-03-04T08:52:57.518Z,97753.56
2019-03-04T08:53:59.746Z,97752.75
2019-03-04T08:55:01.952Z,97746.66
2019-03-04T08:56:04.180Z,97751.05
2019-03-04T08:57:06.370Z,97747.55
2019-03-04T08:58:08.604Z,97742.84
2019-03-04T08:59:14.162Z,97746.33
2019-03-04T09:00:16.378Z,97737.23
2019-03-04T09:01:18.576Z,97735.05
2019-03-04T09:02:20.782Z,97733.83
2019-03-04T09:03:23.051Z,97725.95
2019-03-04T09:04:25.252Z,97727.25
2019-03-04T09:05:27.472Z,97730.33
2019-03-04T09:06:31.992Z,97724.16
2019-03-04T09:07:34.196Z,97722.45
2019-03-04T09:08:36.470Z,97720.67
2019-03-04T09:09:38.666Z,97733.66
2019-03-04T09:10:40.898Z,97751.45
2019-03-04T09:11:43.118Z,97740.57
2019-03-04T09:12:45.326Z,97745.77
2019-03-04T09:13:47.546Z,97747.06
2019-03-04T09:14:49.773Z,97755.75
2019-03-04T09:15:51.970Z,97749.67
2019-03-04T09:16:54.191Z,97749.26
2019-03-04T09:17:56.408Z,97761.36
2019-03-04T09:18:59.878Z,97761.36
2019-03-04T09:20:02.087Z,97756.57
2019-03-04T09:21:04.302Z,97760.87
2019-03-04T09:22:06.484Z,97744.95
2019-03-04T09:23:08.658Z,97743.66
2019-03-04T09:24:10.895Z,97749.18
2019-03-04T09:25:13.102Z,97752.27
2019-03-04T09:26:15.407Z,97748.77
2019-03-04T09:27:17.628Z,97749.67
2019-03-04T09:28:19.818Z,97737.48
2019-03-04T09:29:22.090Z,97731.80
2019-03-04T09:30:24.338Z,97742.69
2019-03-04T09:31:26.550Z,97746.58
2019-03-04T09:32:28.754Z,97747.06
2019-03-04T09:33:30.966Z,97744.87
2019-03-04T09:34:35.780Z,97754.45
2019-03-04T09:35:38.049Z,97751.86
2019-03-04T09:36:40.245Z,97749.74
2019-03-04T09:37:42.548Z,97752.83
2019-03-04T09:38:44.738Z,97756.32
2019-03-04T09:39:46.978Z,97759.41
2019-03-04T09:40:49.179Z,97746.41
2019-03-04T09:41:56.020Z,97752.50
2019-03-04T09:42:58.214Z,97743.41
2019-03-04T09:44:00.426Z,97743.00
2019-03-04T09:45:02.667Z,97738.69
2019-03-04T09:46:04.944Z,97746.97
2019-03-04T09:47:07.164Z,97739.17
2019-03-04T09:48:09.359Z,97743.56
2019-03-04T09:49:11.574Z,97741.37
2019-03-04T09:50:13.821Z,97739.66
2019-03-04T09:51:24.006Z,97745.67
2019-03-04T09:52:19.872Z,97743.07
2019-03-04T09:53:22.010Z,97743.07
2019-03-04T09:54:24.215Z,97743.97
2019-03-04T09:55:26.506Z,97738.28
2019-03-04T09:56:28.735Z,97741.77
2019-03-04T09:57:30.946Z,97740.88
2019-03-04T09:58:33.134Z,97738.77
2019-03-04T09:59:35.427Z,97746.97
2019-03-04T10:00:37.670Z,97744.37
2019-03-04T10:01:42.058Z,97743.56
2019-03-04T10:02:44.264Z,97740.06
2019-03-04T10:03:46.468Z,97739.66
2019-03-04T10:04:49.009Z,97740.95
2019-03-04T10:05:51.221Z,97733.16
2019-03-04T10:06:53.413Z,97737.47
2019-03-04T10:07:55.638Z,97725.36
2019-03-04T10:08:57.848Z,97736.98
2019-03-04T10:10:00.048Z,97714.48
2019-03-04T10:11:02.308Z,97705.80
2019-03-04T10:12:04.506Z,97704.02
2019-03-04T10:13:06.713Z,97710.92
2019-03-04T10:14:08.935Z,97717.41
2019-03-04T10:15:11.192Z,97718.72
2019-03-04T10:16:18.749Z,97714.81
2019-03-04T10:17:17.323Z,97716.59
2019-03-04T10:18:19.535Z,97721.39
2019-03-04T10:19:21.749Z,97731.78
2019-03-04T10:20:26.055Z,97729.52
2019-03-04T10:21:28.459Z,97731.30
2019-03-04T10:22:30.675Z,97734.30
2019-03-04T10:23:32.877Z,97735.20
2019-03-04T10:24:35.075Z,97736.98
2019-03-04T10:25:37.281Z,97725.29
2019-03-04T10:26:39.506Z,97726.18
2019-03-04T10:27:41.723Z,97730.97
2019-03-04T10:28:43.952Z,97735.28
2019-03-04T10:29:46.165Z,97727.56
2019-03-04T10:30:48.376Z,97732.27
2019-03-04T10:31:50.618Z,97727.48
2019-03-04T10:32:52.812Z,97723.17
2019-03-04T10:33:55.001Z,97729.27
2019-03-04T10:34:57.317Z,97733.64
2019-03-04T10:35:59.522Z,97725.84
2019-03-04T10:37:01.746Z,97732.34
2019-03-04T10:38:06.671Z,97727.26
2019-03-04T10:39:08.878Z,97723.84
2019-03-04T10:40:11.094Z,97724.73
2019-03-04T10:41:13.307Z,97726.93
2019-03-04T10:42:15.547Z,97726.04
2019-03-04T10:43:17.997Z,97730.34
2019-03-04T10:44:20.230Z,97723.84
2019-03-04T10:45:22.486Z,97720.36
2019-03-04T10:46:24.885Z,97723.84
2019-03-04T10:47:27.118Z,97737.66
2019-03-04T10:48:29.336Z,97725.84
2019-03-04T10:49:31.533Z,97717.98
2019-03-04T10:50:33.743Z,97723.17
2019-03-04T10:51:36.080Z,97722.69
2019-03-04T10:52:41.017Z,97723.58
2019-03-04T10:53:44.523Z,97714.89
2019-03-04T10:54:46.751Z,97720.50
2019-03-04T10:55:48.984Z,97715.78
2019-03-04T10:56:51.182Z,97719.20
2019-03-04T10:57:53.433Z,97715.23
2019-03-04T10:58:55.653Z,97714.81
2019-03-04T10:59:57.875Z,97705.23
2019-03-04T11:01:00.182Z,97703.53
2019-03-04T11:02:02.375Z,97705.72
2019-03-04T11:03:04.607Z,97715.70
2019-03-04T11:04:06.809Z,97701.41
2019-03-04T11:05:09.025Z,97703.94
2019-03-04T11:06:11.231Z,97704.83
2019-03-04T11:07:13.433Z,97707.02
2019-03-04T11:08:15.699Z,97706.13
2019-03-04T11:09:17.903Z,97709.13
2019-03-04T11:10:20.110Z,97706.95
2019-03-04T11:11:29.453Z,97710.03
2019-03-04T11:12:26.194Z,97711.73
2019-03-04T11:13:28.433Z,97707.35
2019-03-04T11:14:30.660Z,97704.34
2019-03-04T11:15:32.887Z,97706.53
2019-03-04T11:16:35.091Z,97719.53
2019-03-04T11:17:40.413Z,97711.73
2019-03-04T11:18:42.664Z,97715.63
2019-03-04T11:19:44.887Z,97701.75
2019-03-04T11:20:47.097Z,97719.05
2019-03-04T11:21:49.306Z,97717.27
2019-03-04T11:22:51.639Z,97717.27
2019-03-04T11:23:53.936Z,97719.86
2019-03-04T11:24:56.136Z,97729.44
2019-03-04T11:26:01.338Z,97727.33
2019-03-04T11:27:03.549Z,97721.72
2019-03-04T11:28:05.762Z,97718.30
2019-03-04T11:29:09.859Z,97721.31
2019-03-04T11:30:12.330Z,97725.29
2019-03-04T11:31:14.553Z,97720.50
2019-03-04T11:32:16.752Z,97710.52
2019-03-04T11:33:19.006Z,97728.38
2019-03-04T11:34:21.226Z,97717.49
2019-03-04T11:35:23.437Z,97716.59
2019-03-04T11:36:25.631Z,97720.91
2019-03-04T11:37:27.871Z,97720.42
2019-03-04T11:38:30.082Z,97719.53
2019-03-04T11:39:50.203Z,97722.13
2019-03-04T11:40:52.412Z,97719.53
2019-03-04T11:41:54.630Z,97726.92
2019-03-04T11:42:56.855Z,97718.64
2019-03-04T11:43:59.061Z,97733.83
2019-03-04T11:45:01.264Z,97736.83
2019-03-04T11:46:03.472Z,97729.84
2019-03-04T11:47:05.705Z,97728.14
2019-03-04T11:48:07.951Z,97722.94
2019-03-04T11:49:10.158Z,97735.94
2019-03-04T11:50:12.418Z,97736.83
2019-03-04T11:51:14.603Z,97729.84
2019-03-04T11:52:16.833Z,97734.56
2019-03-04T11:53:19.113Z,97742.36
2019-03-04T11:54:21.332Z,97738.86
2019-03-04T11:55:23.574Z,97727.17
2019-03-04T11:56:25.812Z,97748.85
2019-03-04T11:57:28.075Z,97744.55
2019-03-04T11:58:30.283Z,97738.13
2019-03-04T11:59:32.526Z,97743.81
2019-03-04T12:00:40.575Z,97739.91
2019-03-04T12:01:48.161Z,97744.70
2019-03-04T12:02:50.390Z,97746.41
2019-03-04T12:03:52.667Z,97740.73
2019-03-04T12:04:54.908Z,97744.63
2019-03-04T12:05:57.158Z,97740.24
2019-03-04T12:06:59.416Z,97730.33
2019-03-04T12:08:03.697Z,97743.25
2019-03-04T12:09:07.586Z,97743.33
2019-03-04T12:10:09.780Z,97746.73
2019-03-04T12:11:11.998Z,97762.33
2019-03-04T12:12:14.190Z,97754.53
2019-03-04T12:13:16.328Z,97746.73
2019-03-04T12:14:18.576Z,97749.74